• Join FlightAware (Why Join?)
  • Login
  • US Flag 
Rudolph Flight #1: Arrived! 
10:21PM EST


 

Airport Tracker/Info


-or-


 

Live Flight TrackerFlight Track Log ✈ RPA3419 ✈ 11-May-2013 ✈ KPHL - KCHS

Flight Track Log - Related Links

Times and Time Zones

All times are in EDT time to prevent confusion due to time zone crossing. See the RPA3419 flight status page for this flight to view local times or setup timezone preferences in your user account.

Time Position Orientation Groundspeed Altitude Reporting Facility
EDT Latitude Longitude Course Direction KTS MPH feet Rate Location/Type
04:27PM 39.8667 -75.2667 194° South 140 161 700  Level Philadelphia TRACON
04:30PM 39.5695 -75.3028 189° South  Level FlightAware Approximate
04:30PM 39.7656 -75.3675 217° Southwest 204 235 5,900  Level Washington Center
04:31PM 39.4680 -75.3273 194° South  Level FlightAware Approximate
04:31PM 39.6967 -75.3811 189° South 244 281 9,600  Level Washington Center
04:32PM 39.3655 -75.3409 185° South  Level FlightAware Approximate
04:32PM 39.6194 -75.3572 167° South 257 296 12,000  Level Washington Center
04:33PM 39.2631 -75.3567 194° South  Level FlightAware Approximate
04:33PM 39.5361 -75.3386 170° South 283 326 13,300  Level Washington Center
04:34PM 39.4569 -75.3361 179° South 294 338 15,800 1,320 Climbing Washington Center
04:35PM 39.3736 -75.3500 187° South 294 338 15,900 480 Climbing Washington Center
04:36PM 39.2925 -75.3664 189° South 294 338 16,800 540 Climbing Washington Center
04:37PM 39.2111 -75.3800 187° South 294 338 17,100 1,440 Climbing Washington Center
04:38PM 39.1258 -75.3936 187° South 299 344 19,800 2,700 Climbing Washington Center
04:39PM 39.0361 -75.4072 187° South 311 358 22,600 2,580 Climbing Washington Center
04:40PM 38.9486 -75.4236 188° South 317 365 25,000 2,160 Climbing Washington Center
04:41PM 38.8569 -75.4317 184° South 323 372 27,000 1,800 Climbing Washington Center
04:42PM 38.7653 -75.4506 189° South 335 386 28,600 1,620 Climbing Washington Center
04:43PM 38.6672 -75.4614 185° South 346 398 30,300 1,380 Climbing Washington Center
04:44PM 38.5692 -75.4747 186° South 356 410 31,400 1,020 Climbing Washington Center
04:45PM 38.4650 -75.4936 188° South 368 423 32,400 840 Climbing Washington Center
04:46PM 38.3628 -75.5122 188° South 380 437 33,200 1,320 Climbing Washington Center
04:47PM 38.2692 -75.5811 210° Southwest 367 422 35,100 1,560 Climbing Washington Center
04:48PM 38.1961 -75.6472 215° Southwest 341 392 36,400 1,200 Climbing Washington Center
04:49PM 38.1231 -75.7158 216° Southwest 341 392 37,500 780 Climbing Washington Center
04:50PM 38.0519 -75.7842 217° Southwest 329 379 38,000 240 Climbing Washington Center
04:51PM 37.9811 -75.8472 215° Southwest 329 379 38,000  Level Washington Center
04:52PM 37.9100 -75.9181 218° Southwest 329 379 38,000  Level Washington Center
04:53PM 37.8389 -75.9836 216° Southwest 324 373 38,000  Level Washington Center
04:54PM 37.7803 -76.0386 217° Southwest 324 373 38,000  Level Washington Center
04:55PM 37.7047 -76.1167 219° Southwest 324 373 38,000  Level Washington Center
04:56PM 37.6294 -76.1792 213° Southwest 324 373 38,000  Level Washington Center
04:57PM 37.5561 -76.2467 216° Southwest 324 373 38,000  Level Washington Center
04:58PM 37.4850 -76.3117 216° Southwest 324 373 38,000  Level Washington Center
04:59PM 37.4114 -76.3789 216° Southwest 329 379 38,000  Level Washington Center
05:00PM 37.3400 -76.4461 217° Southwest 329 379 38,000  Level Washington Center
05:01PM 37.2667 -76.5106 215° Southwest 329 379 38,000  Level Washington Center
05:02PM 37.1950 -76.5775 217° Southwest 329 379 38,000  Level Washington Center
05:03PM 37.1217 -76.6442 216° Southwest 329 379 38,000  Level Washington Center
05:04PM 37.0481 -76.7083 215° Southwest 329 379 38,000  Level Washington Center
05:05PM 36.9744 -76.7747 216° Southwest 329 379 38,000  Level Washington Center
05:06PM 36.9028 -76.8411 217° Southwest 329 379 38,000  Level Washington Center
05:07PM 36.8289 -76.9075 216° Southwest 329 379 38,000  Level Washington Center
05:08PM 36.7553 -76.9736 216° Southwest 335 386 38,000  Level Washington Center
05:09PM 36.6836 -77.0422 218° Southwest 335 386 38,000  Level Washington Center
05:10PM 36.6117 -77.1108 217° Southwest 335 386 38,000  Level Washington Center
05:11PM 36.5378 -77.1767 216° Southwest 335 386 38,000  Level Washington Center
05:12PM 36.4681 -77.2450 218° Southwest 330 380 38,000  Level Washington Center
05:13PM 36.3961 -77.3106 216° Southwest 330 380 38,000  Level Washington Center
05:14PM 36.3219 -77.3864 219° Southwest 325 374 38,000  Level Washington Center
05:15PM 36.2500 -77.4517 216° Southwest 325 374 38,000  Level Washington Center
05:16PM 36.1739 -77.5244 218° Southwest 320 368 38,000  Level Washington Center
05:17PM 36.1019 -77.5894 216° Southwest 320 368 38,000  Level Washington Center
05:18PM 36.0278 -77.6594 217° Southwest 331 381 38,000  Level Washington Center
05:19PM 35.9514 -77.7267 215° Southwest 331 381 38,000  Level Washington Center
05:20PM 35.8731 -77.7861 212° Southwest 337 388 38,000  Level Washington Center
05:21PM 35.7947 -77.8506 214° Southwest 342 394 38,000  Level Washington Center
05:22PM 35.7122 -77.9122 211° Southwest 347 399 38,000  Level Washington Center
05:23PM 35.6336 -77.9764 214° Southwest 347 399 38,000  Level Washington Center
05:24PM 35.5531 -78.0378 212° Southwest 352 405 38,000  Level Washington Center
05:25PM 35.4747 -78.0967 211° Southwest 352 405 38,000  Level Washington Center
05:26PM 35.3942 -78.1578 212° Southwest 352 405 38,000  Level Washington Center
05:27PM 35.3178 -78.2189 213° Southwest 352 405 38,000  Level Washington Center
05:28PM 35.2350 -78.2825 212° Southwest 352 405 38,000  Level Washington Center
05:29PM 35.1542 -78.3458 213° Southwest 352 405 38,000  Level Washington Center
05:30PM 35.0714 -78.4089 212° Southwest 352 405 38,000 -840 Level Washington Center
05:31PM 34.9886 -78.4694 211° Southwest 352 405 36,400 -1,800 Descending Washington Center
05:32PM 34.9075 -78.5350 214° Southwest 352 405 34,500 -1,740 Descending Washington Center
05:33PM 34.8333 -78.5906 212° Southwest 352 405 33,000 -1,800 Descending Washington Center
05:34PM 34.7503 -78.6556 213° Southwest 352 405 30,900 -1,140 Descending Washington Center
05:37PM 34.4489 -78.8917 213° Southwest 344 396 28,000 -780 Descending Jacksonville Center
05:38PM 34.3672 -78.9508 211° Southwest 354 407 27,600 -600 Descending Jacksonville Center
05:39PM 34.2836 -79.0125 211° Southwest 354 407 26,800 -900 Descending Jacksonville Center
05:40PM 34.1933 -79.0592 203° Southwest 359 413 25,800 -1,080 Descending Jacksonville Center
05:41PM 34.1031 -79.1058 203° Southwest 359 413 24,700 -1,200 Descending Jacksonville Center
05:42PM 34.0192 -79.1594 208° Southwest 354 407 23,400 -1,320 Descending Jacksonville Center
05:43PM 33.9308 -79.2108 206° Southwest 354 407 22,100 -1,260 Descending Jacksonville Center
05:44PM 33.8508 -79.2617 208° Southwest 344 396 20,900 -1,200 Descending Jacksonville Center
05:45PM 33.7689 -79.3125 207° Southwest 339 390 19,700 -1,200 Descending Jacksonville Center
05:46PM 33.6908 -79.3556 205° Southwest 329 379 18,600 -1,200 Descending Jacksonville Center
05:47PM 33.6131 -79.4061 208° Southwest 317 365 17,400 -1,200 Descending Jacksonville Center
05:48PM 33.5369 -79.4514 206° Southwest 317 365 16,200 -1,200 Descending Jacksonville Center
05:49PM 33.4672 -79.4939 207° Southwest 312 359 15,000 -1,800 Descending Jacksonville Center
05:50PM 33.3933 -79.5392 207° Southwest 301 346 12,700 -2,400 Descending Jacksonville Center
05:51PM 33.3153 -79.5917 209° Southwest 307 353 10,300 -1,980 Descending Jacksonville Center
05:52PM 33.2500 -79.6439 214° Southwest 302 348 8,800 -1,620 Descending Jacksonville Center
05:53PM 33.1969 -79.6978 220° Southwest 278 320 7,100 -1,860 Descending Jacksonville Center
05:54PM 33.1633 -79.7711 241° Southwest 250 288 5,100 -1,800 Descending Jacksonville Center
05:55PM 33.1297 -79.8442 241° Southwest 255 293 3,500 -1,380 Descending Jacksonville Center
05:56PM 33.0958 -79.9122 239° Southwest 255 293 2,400 -960 Descending Jacksonville Center
05:57PM 33.0511 -79.9608 222° Southwest 240 276 1,600 -420 Descending Jacksonville Center
05:58PM 33.0017 -79.9847 202° Southwest 212 244 1,600  Level Jacksonville Center